Terminal Aerodrome Forecast
Issued by NWS

Home | Current Version | Previous Version | Text Only | Print | Product List | Glossary On
Versions: 1 2 3 4 5 6 7 8 9 10 11 12 13 14 15 16 17 18
145
FTUS41 KPBZ 060542
TAFLBE
TAF
KLBE 060542Z 0606/0706 VRB03KT P6SM BKN200
     FM061500 12013G22KT P6SM -RA OVC040
     FM061800 13014G27KT 3SM -RAPL OVC015
     FM062200 13012G18KT 3SM -RA OVC012
     FM070000 12005KT P6SM VCSH OVC008=

USA.gov is the U.S. government's official web portal to all federal, state and local government web resources and services.